Time;durP1;ratioP1;P1;durP2;ratioP2;P2;SDS_P1;SDS_P2;PMS_P1;PMS_P2;Temp;Humidity;BMP_temperature;BMP_pressure;BME280_temperature;BME280_humidity;BME280_pressure;Samples;Min_cycle;Max_cycle;Signal;HPM_P1;HPM_P2
2021/12/15 00:00:39;;;;;;;5.78;2.33;;;24.30;80.40;;;;;;5073228;28;20021;-55
2021/12/15 00:03:08;;;;;;;5.72;2.40;;;24.40;80.40;;;;;;5073015;28;20078;-50
2021/12/15 00:05:36;;;;;;;4.35;2.45;;;24.50;79.90;;;;;;5072527;28;20334;-60
2021/12/15 00:08:11;;;;;;;6.53;2.75;;;24.50;80.20;;;;;;5072243;28;20410;-58
2021/12/15 00:10:42;;;;;;;5.00;2.50;;;24.40;80.40;;;;;;5072617;28;20512;-56
2021/12/15 00:13:11;;;;;;;8.73;2.63;;;24.50;80.20;;;;;;5072894;28;20035;-54
2021/12/15 00:15:40;;;;;;;7.40;3.10;;;24.50;80.40;;;;;;5072929;28;20023;-57
2021/12/15 00:18:07;;;;;;;6.55;2.35;;;24.70;79.90;;;;;;5072466;28;20505;-56
2021/12/15 00:20:36;;;;;;;7.28;3.13;;;24.70;79.90;;;;;;5072478;28;20032;-59
2021/12/15 00:23:04;;;;;;;6.22;2.20;;;24.80;79.60;;;;;;5073028;28;20028;-53
2021/12/15 00:25:36;;;;;;;5.47;2.72;;;24.80;79.20;;;;;;5073183;28;20230;-59
2021/12/15 00:28:05;;;;;;;7.13;2.78;;;24.80;79.40;;;;;;5072732;28;20024;-60
2021/12/15 00:30:33;;;;;;;7.95;3.03;;;24.90;79.00;;;;;;5072420;28;20020;-61
2021/12/15 00:33:01;;;;;;;5.82;2.28;;;25.00;79.30;;;;;;5072510;28;20021;-60
2021/12/15 00:35:29;;;;;;;5.80;2.78;;;25.00;78.90;;;;;;5072405;28;20031;-59
2021/12/15 00:37:56;;;;;;;8.25;3.20;;;25.00;78.90;;;;;;5071894;28;20040;-58
2021/12/15 00:40:26;;;;;;;4.70;2.38;;;25.10;79.00;;;;;;5072600;28;20036;-57
2021/12/15 00:42:54;;;;;;;7.68;2.58;;;25.10;79.20;;;;;;5072294;28;20020;-60
2021/12/15 00:45:22;;;;;;;6.30;2.58;;;25.10;78.50;;;;;;5072351;28;20021;-54
2021/12/15 00:47:50;;;;;;;4.10;2.08;;;25.10;79.10;;;;;;5072504;28;20478;-56
2021/12/15 00:50:20;;;;;;;5.32;2.15;;;25.20;78.60;;;;;;5076657;28;20021;-56
2021/12/15 00:52:48;;;;;;;7.97;2.58;;;25.10;79.20;;;;;;5076844;28;20056;-52
2021/12/15 00:55:19;;;;;;;5.18;2.10;;;25.20;78.80;;;;;;5075123;28;20090;-54
2021/12/15 00:57:47;;;;;;;8.13;2.92;;;25.40;78.30;;;;;;5076848;28;20113;-58
2021/12/15 01:00:26;;;;;;;5.05;2.60;;;25.30;78.60;;;;;;5076184;28;20035;-59
2021/12/15 01:02:54;;;;;;;5.38;2.20;;;25.40;78.20;;;;;;5075973;28;20025;-59
2021/12/15 01:05:26;;;;;;;4.88;2.20;;;25.40;78.30;;;;;;5076199;28;20021;-52
2021/12/15 01:07:54;;;;;;;6.35;2.05;;;25.40;78.20;;;;;;5076171;28;20025;-56
2021/12/15 01:10:30;;;;;;;4.70;2.03;;;25.40;78.20;;;;;;5076376;28;20474;-57
2021/12/15 01:21:33;;;;;;;4.65;2.00;;;25.50;78.30;;;;;;5034171;28;20450;-56
2021/12/15 01:24:01;;;;;;;6.38;2.30;;;25.60;77.80;;;;;;5033838;28;20033;-57
2021/12/15 01:26:29;;;;;;;4.07;2.25;;;25.50;77.70;;;;;;5054210;28;20527;-55
2021/12/15 01:28:56;;;;;;;9.10;2.38;;;25.60;77.60;;;;;;5074691;28;20093;-54
2021/12/15 01:31:24;;;;;;;5.20;2.25;;;25.60;77.90;;;;;;5075413;28;20017;-56
2021/12/15 01:33:51;;;;;;;5.82;2.03;;;25.60;77.80;;;;;;5075732;28;20115;-57
2021/12/15 01:36:19;;;;;;;4.75;2.20;;;25.70;77.40;;;;;;5075745;28;20020;-58
2021/12/15 01:38:47;;;;;;;8.48;2.75;;;25.70;77.90;;;;;;5075610;28;20040;-58
2021/12/15 01:41:22;;;;;;;5.03;2.30;;;25.80;77.70;;;;;;5074197;28;20385;-58
2021/12/15 01:46:56;;;;;;;3.80;1.80;;;25.90;77.30;;;;;;5074969;28;20425;-54
2021/12/15 01:49:43;;;;;;;5.90;2.65;;;25.80;77.40;;;;;;5074521;28;20403;-61
2021/12/15 01:52:20;;;;;;;3.92;1.90;;;26.00;76.80;;;;;;5075135;28;20032;-52
2021/12/15 01:55:10;;;;;;;5.00;2.15;;;25.90;77.00;;;;;;5075281;28;20451;-59
2021/12/15 01:57:41;;;;;;;5.53;2.28;;;26.00;77.10;;;;;;5075315;28;20039;-58
2021/12/15 02:00:24;;;;;;;5.20;1.92;;;25.90;77.60;;;;;;5075004;28;20098;-59
2021/12/15 02:02:52;;;;;;;5.68;2.20;;;25.90;77.70;;;;;;5075325;28;20035;-55
2021/12/15 02:05:20;;;;;;;3.90;1.80;;;25.90;77.50;;;;;;5075153;28;20040;-62
2021/12/15 02:07:48;;;;;;;3.88;1.83;;;26.00;77.30;;;;;;5075091;28;20021;-57
2021/12/15 02:10:18;;;;;;;3.92;2.30;;;26.00;77.10;;;;;;5075096;28;20024;-55
2021/12/15 02:12:45;;;;;;;3.53;1.77;;;26.00;77.30;;;;;;5075261;28;20033;-59
2021/12/15 02:15:23;;;;;;;4.68;2.22;;;26.00;77.20;;;;;;5073518;28;20025;-54
2021/12/15 02:17:52;;;;;;;3.22;1.80;;;26.10;77.10;;;;;;5074504;28;20032;-59
2021/12/15 02:20:25;;;;;;;4.22;1.83;;;26.20;76.70;;;;;;5075680;28;20025;-56
2021/12/15 02:22:52;;;;;;;9.25;2.58;;;26.10;76.90;;;;;;5075076;28;20029;-55
2021/12/15 02:25:20;;;;;;;3.38;1.85;;;26.10;76.90;;;;;;5074222;28;20324;-61
2021/12/15 02:27:48;;;;;;;6.20;1.98;;;26.10;76.20;;;;;;5074442;28;20051;-62
2021/12/15 02:33:38;;;;;;;6.22;2.03;;;26.20;76.30;;;;;;5075013;28;20055;-59
2021/12/15 02:38:45;;;;;;;5.07;1.60;;;26.20;76.40;;;;;;5074973;28;20047;-58
2021/12/15 02:41:23;;;;;;;6.00;2.35;;;26.20;75.80;;;;;;5074524;28;20024;-53
2021/12/15 02:44:01;;;;;;;3.63;1.88;;;26.20;77.10;;;;;;5074721;28;20467;-56
2021/12/15 02:46:30;;;;;;;6.00;2.22;;;26.20;76.60;;;;;;5074165;28;20029;-58
2021/12/15 02:48:58;;;;;;;6.55;1.92;;;26.20;76.80;;;;;;5074273;28;20028;-56
2021/12/15 02:51:27;;;;;;;4.20;1.60;;;26.30;77.10;;;;;;5073954;28;20033;-58
2021/12/15 02:54:00;;;;;;;4.20;1.88;;;26.20;77.40;;;;;;5074218;28;20114;-60
2021/12/15 02:56:28;;;;;;;3.25;2.10;;;26.20;77.00;;;;;;5072898;28;20029;-60
2021/12/15 02:59:01;;;;;;;4.07;1.90;;;26.10;76.70;;;;;;5074646;28;20466;-59
2021/12/15 03:01:51;;;;;;;4.03;1.73;;;26.30;76.10;;;;;;5074929;28;20025;-62
2021/12/15 03:04:44;;;;;;;4.47;1.77;;;26.40;75.50;;;;;;5073948;28;20379;-59
2021/12/15 03:15:24;;;;;;;6.00;1.92;;;26.40;76.50;;;;;;5074571;28;20541;-61
2021/12/15 03:18:02;;;;;;;4.63;1.83;;;26.40;75.90;;;;;;5072297;28;20127;-59
2021/12/15 03:20:38;;;;;;;3.67;1.50;;;26.50;74.40;;;;;;5073638;28;20094;-57
2021/12/15 03:23:08;;;;;;;7.97;1.92;;;26.50;75.10;;;;;;5073653;28;20029;-59
2021/12/15 03:25:36;;;;;;;5.10;2.08;;;26.50;74.90;;;;;;5072192;28;20463;-54
2021/12/15 03:33:43;;;;;;;5.05;1.90;;;26.70;74.50;;;;;;5073904;28;20086;-55
2021/12/15 03:36:24;;;;;;;5.78;1.65;;;26.70;74.30;;;;;;5072649;28;20024;-57
2021/12/15 03:38:51;;;;;;;8.82;2.20;;;26.60;74.40;;;;;;5072673;28;20075;-57
2021/12/15 03:41:19;;;;;;;6.55;1.98;;;26.60;73.70;;;;;;5073274;28;20024;-51
2021/12/15 03:43:46;;;;;;;4.10;1.55;;;26.60;73.00;;;;;;5072853;28;20359;-60
2021/12/15 03:46:16;;;;;;;3.35;1.45;;;26.60;76.00;;;;;;5073127;28;20040;-54
2021/12/15 03:48:44;;;;;;;5.38;1.75;;;26.60;74.50;;;;;;5073113;28;20384;-57
2021/12/15 03:51:13;;;;;;;6.88;2.00;;;26.60;75.40;;;;;;5073080;28;20017;-55
2021/12/15 03:53:42;;;;;;;6.10;2.10;;;26.60;75.70;;;;;;5072451;28;20060;-57
2021/12/15 03:56:12;;;;;;;3.42;1.40;;;26.60;76.00;;;;;;5072496;28;20032;-60
2021/12/15 03:58:40;;;;;;;8.90;2.13;;;26.50;74.70;;;;;;5072609;28;20486;-58
2021/12/15 04:01:15;;;;;;;3.72;1.67;;;26.50;74.80;;;;;;5073095;28;20135;-57
2021/12/15 04:03:47;;;;;;;5.40;1.52;;;26.50;74.50;;;;;;5073007;28;20020;-54
2021/12/15 04:06:22;;;;;;;3.55;1.48;;;26.60;75.00;;;;;;5072976;28;20035;-57
2021/12/15 04:08:50;;;;;;;4.60;1.52;;;26.60;75.60;;;;;;5072785;28;20104;-52
2021/12/15 04:11:20;;;;;;;3.17;1.50;;;26.50;76.00;;;;;;5072238;28;20024;-60
2021/12/15 04:13:48;;;;;;;5.10;1.40;;;26.40;76.70;;;;;;5072982;28;20032;-60
2021/12/15 04:16:41;;;;;;;4.80;1.92;;;26.40;75.70;;;;;;5072099;28;20021;-57
2021/12/15 04:19:14;;;;;;;3.42;1.60;;;26.40;76.70;;;;;;5072625;28;20093;-51
2021/12/15 04:21:42;;;;;;;3.38;1.67;;;26.40;76.60;;;;;;5072741;28;20031;-58
2021/12/15 04:24:15;;;;;;;4.85;1.48;;;26.40;75.20;;;;;;5072616;28;20048;-54
2021/12/15 04:26:43;;;;;;;3.50;1.20;;;26.40;77.10;;;;;;5072377;28;20025;-54
2021/12/15 04:29:11;;;;;;;5.22;1.60;;;26.40;77.10;;;;;;5072448;28;20055;-55
2021/12/15 04:31:44;;;;;;;6.55;1.80;;;26.30;77.30;;;;;;5071011;28;20037;-51
2021/12/15 04:34:12;;;;;;;5.57;1.63;;;26.40;75.70;;;;;;5072483;28;20039;-55
2021/12/15 04:36:44;;;;;;;4.60;1.80;;;26.40;76.10;;;;;;5072476;28;20020;-58
2021/12/15 04:39:15;;;;;;;4.28;1.73;;;26.40;75.00;;;;;;5072281;28;20371;-55
2021/12/15 04:41:48;;;;;;;4.78;1.10;;;26.40;75.10;;;;;;5072442;28;20140;-51
2021/12/15 04:44:17;;;;;;;3.95;1.45;;;26.30;76.20;;;;;;5071188;28;20067;-59
2021/12/15 04:46:59;;;;;;;4.85;1.63;;;26.30;75.80;;;;;;5072396;28;20016;-59
2021/12/15 04:49:26;;;;;;;;;;;26.20;76.70;;;;;;5073067;28;20025;-59
2021/12/15 04:51:53;;;;;;;4.28;1.58;;;26.30;75.50;;;;;;5072198;28;19904;-54
2021/12/15 04:54:21;;;;;;;3.35;1.50;;;26.30;75.90;;;;;;5072614;28;20056;-56
2021/12/15 04:56:49;;;;;;;3.03;1.48;;;26.30;76.40;;;;;;5072692;28;20094;-57
2021/12/15 04:59:17;;;;;;;5.88;2.03;;;26.20;76.80;;;;;;5072584;28;20036;-55
2021/12/15 05:01:45;;;;;;;3.40;1.30;;;26.40;75.70;;;;;;5072258;28;20016;-56
2021/12/15 05:04:14;;;;;;;2.70;1.20;;;26.40;76.40;;;;;;5072002;28;20031;-57
2021/12/15 05:06:42;;;;;;;4.90;1.70;;;26.30;76.50;;;;;;5072147;28;20056;-54
2021/12/15 05:09:10;;;;;;;5.47;1.42;;;26.30;77.30;;;;;;5072376;28;20024;-61
2021/12/15 05:11:38;;;;;;;2.50;1.20;;;26.40;75.70;;;;;;5072319;28;20024;-57
2021/12/15 05:14:05;;;;;;;3.38;1.35;;;26.40;75.70;;;;;;5071895;28;20021;-57
2021/12/15 05:16:33;;;;;;;4.18;1.40;;;26.40;75.90;;;;;;5071917;28;20428;-56
2021/12/15 05:19:01;;;;;;;3.65;1.50;;;26.40;74.90;;;;;;5071872;28;20031;-58
2021/12/15 05:21:30;;;;;;;5.07;1.50;;;26.40;74.50;;;;;;5072032;28;20048;-56
2021/12/15 05:24:07;;;;;;;7.43;1.52;;;26.40;73.90;;;;;;5071816;28;20025;-59
2021/12/15 05:26:34;;;;;;;4.95;1.55;;;26.50;73.90;;;;;;5072162;28;20020;-56
2021/12/15 05:29:02;;;;;;;3.38;1.40;;;26.40;77.30;;;;;;5072281;28;20020;-57
2021/12/15 05:31:29;;;;;;;4.07;1.88;;;26.40;74.20;;;;;;5071541;28;20025;-58
2021/12/15 05:33:57;;;;;;;2.33;1.20;;;26.40;75.40;;;;;;5072525;28;20326;-61
2021/12/15 05:36:24;;;;;;;4.53;1.50;;;26.40;75.80;;;;;;5075641;28;20024;-54
2021/12/15 05:38:52;;;;;;;5.97;1.60;;;26.50;73.00;;;;;;5075698;28;20035;-59
2021/12/15 05:41:20;;;;;;;4.15;1.50;;;26.40;74.10;;;;;;5075723;28;20378;-56
2021/12/15 05:43:47;;;;;;;4.93;1.45;;;26.40;74.50;;;;;;5075703;28;20031;-56
2021/12/15 05:46:15;;;;;;;3.75;1.52;;;26.40;74.00;;;;;;5075428;28;20020;-55
2021/12/15 05:48:42;;;;;;;3.60;1.58;;;26.20;75.40;;;;;;5074150;28;20120;-56
2021/12/15 05:51:10;;;;;;;4.07;1.27;;;26.20;74.60;;;;;;5075301;28;20473;-59
2021/12/15 05:53:37;;;;;;;3.47;1.08;;;26.20;74.70;;;;;;5075373;28;20049;-60
2021/12/15 05:56:06;;;;;;;7.97;1.52;;;26.30;75.80;;;;;;5075067;28;20063;-59
2021/12/15 05:58:33;;;;;;;2.83;1.20;;;26.20;74.80;;;;;;5074750;28;20032;-55
2021/12/15 06:01:01;;;;;;;6.93;1.70;;;26.20;73.40;;;;;;5074975;28;20024;-55
2021/12/15 06:03:28;;;;;;;4.18;1.60;;;26.40;70.90;;;;;;5074801;28;20390;-58
2021/12/15 06:05:56;;;;;;;5.55;1.63;;;26.50;71.60;;;;;;5074809;28;20098;-56
2021/12/15 06:08:23;;;;;;;6.43;1.67;;;26.50;72.80;;;;;;5074673;28;20434;-55
2021/12/15 06:10:51;;;;;;;5.70;1.80;;;26.60;71.50;;;;;;5073798;28;20025;-58
2021/12/15 06:13:22;;;;;;;6.18;1.88;;;26.70;68.80;;;;;;5074738;28;20029;-52
2021/12/15 06:15:50;;;;;;;12.00;1.65;;;26.80;69.90;;;;;;5074510;28;20029;-56
2021/12/15 06:18:21;;;;;;;7.30;2.22;;;26.90;70.10;;;;;;5074359;28;20036;-58
2021/12/15 06:20:51;;;;;;;11.55;2.40;;;26.90;69.20;;;;;;5074295;28;20097;-52
2021/12/15 06:23:20;;;;;;;9.13;1.60;;;27.00;66.90;;;;;;5074592;28;20028;-54
2021/12/15 06:25:55;;;;;;;11.48;1.80;;;27.00;70.20;;;;;;5074137;28;20108;-56
2021/12/15 06:28:24;;;;;;;9.38;2.47;;;27.10;68.70;;;;;;5074249;28;20028;-56
2021/12/15 06:30:53;;;;;;;7.55;2.00;;;27.10;66.50;;;;;;5073898;28;20029;-57
2021/12/15 06:33:22;;;;;;;7.88;1.48;;;27.20;66.10;;;;;;5074423;28;20024;-53
2021/12/15 06:35:53;;;;;;;7.90;1.83;;;27.20;66.50;;;;;;5074156;28;20497;-56
2021/12/15 06:38:27;;;;;;;6.85;1.65;;;27.30;67.10;;;;;;5074142;28;20040;-57
2021/12/15 06:40:55;;;;;;;10.48;1.95;;;27.30;66.80;;;;;;5073738;28;20029;-58
2021/12/15 06:43:24;;;;;;;13.70;2.03;;;27.30;67.40;;;;;;5073583;28;20020;-53
2021/12/15 06:59:40;;;;;;;9.05;2.10;;;27.50;66.80;;;;;;5074027;28;20086;-54
2021/12/15 07:02:08;;;;;;;9.88;2.38;;;27.50;66.30;;;;;;5073345;28;20025;-68
2021/12/15 07:04:35;;;;;;;24.55;2.13;;;27.50;66.50;;;;;;5073824;28;20066;-60
2021/12/15 07:07:04;;;;;;;9.00;2.08;;;27.50;66.10;;;;;;5074182;28;20028;-60
2021/12/15 07:09:33;;;;;;;7.15;2.10;;;27.50;67.60;;;;;;5072358;28;20017;-58
2021/12/15 07:12:03;;;;;;;15.05;2.85;;;27.40;65.70;;;;;;5073551;28;20490;-58
2021/12/15 07:14:31;;;;;;;6.18;1.60;;;27.40;65.60;;;;;;5073766;28;20025;-57
2021/12/15 07:16:59;;;;;;;7.00;2.08;;;27.40;67.00;;;;;;5073572;28;20040;-57
2021/12/15 07:25:00;;;;;;;8.50;2.13;;;27.30;65.40;;;;;;5031269;28;20179;-61
2021/12/15 07:27:27;;;;;;;5.85;1.50;;;27.20;66.70;;;;;;5065265;28;20394;-61
2021/12/15 07:29:55;;;;;;;10.85;2.20;;;27.20;66.60;;;;;;5072937;28;20028;-59
2021/12/15 07:32:22;;;;;;;6.28;1.65;;;27.20;66.60;;;;;;5073499;28;20024;-64
2021/12/15 07:34:50;;;;;;;8.35;2.85;;;27.20;66.30;;;;;;5073248;28;20378;-60
2021/12/15 07:37:17;;;;;;;9.55;2.10;;;27.20;66.50;;;;;;5073323;28;20368;-63
2021/12/15 07:39:54;;;;;;;8.27;2.03;;;27.20;67.10;;;;;;5073218;28;20024;-62
2021/12/15 07:42:31;;;;;;;9.30;2.85;;;27.20;67.40;;;;;;5073544;28;20471;-62
2021/12/15 07:44:58;;;;;;;11.13;2.22;;;27.10;67.90;;;;;;5073268;28;20035;-60
2021/12/15 07:47:26;;;;;;;9.57;2.40;;;27.10;68.60;;;;;;5073632;28;20034;-59
2021/12/15 07:49:54;;;;;;;5.95;2.08;;;27.00;68.60;;;;;;5073321;28;20025;-60
2021/12/15 07:52:21;;;;;;;10.88;1.90;;;27.00;68.70;;;;;;5071652;28;20515;-57
2021/12/15 07:54:49;;;;;;;6.95;2.08;;;27.00;69.40;;;;;;5072920;28;20123;-60
2021/12/15 07:57:19;;;;;;;17.50;2.28;;;26.90;69.40;;;;;;5072394;28;20024;-65
2021/12/15 07:59:47;;;;;;;6.20;1.75;;;26.90;69.90;;;;;;5072851;28;20056;-60
2021/12/15 08:02:15;;;;;;;7.25;2.15;;;26.90;69.80;;;;;;5072940;28;20101;-60
2021/12/15 08:04:42;;;;;;;11.65;2.28;;;26.90;69.90;;;;;;5073251;28;20051;-58
2021/12/15 08:07:10;;;;;;;7.50;2.45;;;26.90;70.80;;;;;;5072893;28;20031;-57
2021/12/15 08:09:39;;;;;;;10.30;2.55;;;26.80;70.90;;;;;;5073035;28;20033;-55
2021/12/15 08:12:06;;;;;;;9.70;3.53;;;26.80;72.00;;;;;;5072368;28;20415;-59
2021/12/15 08:14:34;;;;;;;15.75;3.25;;;26.80;71.60;;;;;;5072597;28;20430;-58
2021/12/15 08:17:02;;;;;;;18.70;3.15;;;26.80;73.40;;;;;;5072587;28;20120;-60
2021/12/15 08:19:29;;;;;;;16.48;3.33;;;26.80;73.80;;;;;;5072707;28;20359;-59
2021/12/15 08:21:57;;;;;;;14.48;2.63;;;26.70;74.50;;;;;;5072477;28;20020;-54
2021/12/15 08:24:24;;;;;;;13.52;2.70;;;26.70;75.80;;;;;;5072827;28;20398;-55
2021/12/15 08:26:52;;;;;;;17.50;3.28;;;26.60;74.30;;;;;;5072279;28;20032;-58
2021/12/15 08:29:19;;;;;;;14.43;3.35;;;26.60;75.70;;;;;;5072793;28;20035;-58
2021/12/15 08:31:47;;;;;;;12.13;2.95;;;26.60;76.50;;;;;;5072653;28;20027;-59
2021/12/15 08:34:14;;;;;;;11.23;2.65;;;26.60;75.10;;;;;;5072997;28;20027;-59
2021/12/15 08:36:43;;;;;;;11.00;3.20;;;26.60;74.80;;;;;;5072560;28;20363;-61
2021/12/15 08:39:11;;;;;;;7.55;3.25;;;26.60;75.40;;;;;;5072669;28;20028;-60
2021/12/15 08:41:39;;;;;;;9.80;2.83;;;26.60;76.00;;;;;;5071692;28;20032;-60
2021/12/15 08:44:08;;;;;;;8.88;2.70;;;26.50;76.30;;;;;;5072577;28;20059;-60
2021/12/15 08:46:40;;;;;;;13.75;2.40;;;26.50;75.60;;;;;;5072696;28;20107;-60
2021/12/15 08:49:10;;;;;;;7.20;2.08;;;26.50;77.30;;;;;;5072456;28;20050;-59
2021/12/15 08:51:38;;;;;;;14.18;2.90;;;26.50;77.30;;;;;;5072157;28;20028;-59
2021/12/15 08:54:09;;;;;;;13.10;2.70;;;26.50;78.60;;;;;;5071983;28;20479;-59
2021/12/15 08:56:37;;;;;;;29.90;4.57;;;26.50;80.10;;;;;;5072943;28;20021;-57
2021/12/15 08:59:06;;;;;;;9.32;2.75;;;26.50;80.80;;;;;;5072259;28;20056;-58
2021/12/15 09:01:33;;;;;;;13.00;2.83;;;26.50;79.20;;;;;;5072513;28;20366;-58
2021/12/15 09:04:01;;;;;;;11.52;2.40;;;26.50;78.80;;;;;;5071827;28;20107;-60
2021/12/15 09:06:29;;;;;;;9.68;2.05;;;26.50;82.10;;;;;;5071812;28;20467;-64
2021/12/15 09:08:57;;;;;;;8.00;2.42;;;26.40;83.00;;;;;;5071344;28;20037;-59
2021/12/15 09:11:26;;;;;;;9.38;2.33;;;26.40;83.80;;;;;;5076276;28;20024;-55
2021/12/15 09:13:56;;;;;;;24.10;2.83;;;26.30;85.00;;;;;;5076079;28;20029;-54
2021/12/15 09:16:26;;;;;;;10.32;2.50;;;26.20;86.10;;;;;;5076419;28;20020;-55
2021/12/15 09:18:56;;;;;;;14.48;2.53;;;26.10;86.70;;;;;;5076494;28;20535;-57
2021/12/15 09:21:25;;;;;;;7.80;2.10;;;25.90;88.80;;;;;;5076457;28;20040;-58
2021/12/15 09:23:53;;;;;;;8.48;2.22;;;25.80;89.00;;;;;;5076028;28;20374;-59
2021/12/15 09:26:21;;;;;;;9.07;2.10;;;25.70;89.10;;;;;;5075139;28;20025;-58
2021/12/15 09:28:52;;;;;;;7.78;2.17;;;25.60;89.00;;;;;;5075981;28;20096;-59
2021/12/15 09:31:20;;;;;;;10.07;2.80;;;25.60;89.70;;;;;;5076334;28;20027;-53
2021/12/15 09:33:50;;;;;;;13.63;2.67;;;25.50;89.70;;;;;;5075993;28;20029;-61
2021/12/15 09:36:20;;;;;;;9.60;2.38;;;25.50;89.50;;;;;;5076062;28;20029;-60
2021/12/15 09:38:53;;;;;;;5.75;2.13;;;25.40;89.90;;;;;;5075806;28;20174;-58
2021/12/15 09:41:23;;;;;;;11.07;2.47;;;25.30;89.70;;;;;;5075795;28;20028;-60
2021/12/15 09:43:53;;;;;;;6.72;2.30;;;25.30;89.60;;;;;;5075558;28;20036;-58
2021/12/15 09:57:22;;;;;;;7.57;2.63;;;25.10;89.00;;;;;;5075959;28;20039;-60
2021/12/15 10:02:53;;;;;;;5.53;2.47;;;24.90;90.00;;;;;;5076213;28;20081;-56
2021/12/15 10:05:48;;;;;;;5.85;1.90;;;24.90;90.00;;;;;;5075446;28;20104;-57
2021/12/15 10:19:43;;;;;;;4.07;1.67;;;24.60;89.90;;;;;;5075380;28;20402;-60
2021/12/15 10:22:32;;;;;;;5.75;1.88;;;24.60;89.60;;;;;;5075146;28;20035;-59
2021/12/15 10:25:10;;;;;;;7.70;2.03;;;24.50;89.20;;;;;;5075080;28;20035;-58
2021/12/15 10:27:53;;;;;;;6.15;1.70;;;24.50;89.20;;;;;;5075056;28;20074;-55
2021/12/15 10:30:31;;;;;;;3.60;1.85;;;24.50;89.70;;;;;;5075074;28;20047;-56
2021/12/15 10:33:13;;;;;;;7.25;1.98;;;24.40;89.30;;;;;;5075163;28;20028;-57
2021/12/15 10:35:49;;;;;;;7.20;1.73;;;24.40;89.70;;;;;;5074858;28;20032;-60
2021/12/15 10:38:30;;;;;;;4.13;1.58;;;24.30;89.80;;;;;;5074881;28;20040;-56
2021/12/15 10:41:18;;;;;;;3.42;1.75;;;24.30;90.00;;;;;;5074883;28;20547;-58
2021/12/15 10:44:02;;;;;;;5.18;2.05;;;24.30;89.90;;;;;;5074597;28;20387;-57
2021/12/15 10:46:35;;;;;;;4.80;1.70;;;24.30;90.20;;;;;;5074878;28;20020;-54
2021/12/15 10:49:10;;;;;;;7.65;1.95;;;24.20;90.00;;;;;;5075331;28;20103;-57
2021/12/15 10:52:03;;;;;;;6.47;1.70;;;24.20;90.00;;;;;;5075073;28;20025;-59
2021/12/15 10:54:46;;;;;;;6.32;2.13;;;24.20;90.00;;;;;;5066296;28;20162;-51
2021/12/15 10:57:28;;;;;;;4.90;2.22;;;24.20;90.20;;;;;;5074302;28;20563;-58
2021/12/15 10:59:57;;;;;;;6.88;2.40;;;24.10;90.20;;;;;;5073077;28;20024;-54
2021/12/15 11:02:32;;;;;;;6.72;2.30;;;24.10;90.20;;;;;;5074526;28;20501;-58
2021/12/15 11:05:14;;;;;;;5.57;2.00;;;24.10;90.40;;;;;;5074469;28;20382;-49
2021/12/15 11:07:44;;;;;;;4.55;2.10;;;24.10;90.30;;;;;;5074368;28;20103;-59
2021/12/15 11:10:27;;;;;;;5.82;2.30;;;24.00;90.40;;;;;;5074214;28;20471;-58
2021/12/15 11:13:16;;;;;;;4.05;1.83;;;24.00;90.50;;;;;;5074028;28;20032;-58
2021/12/15 11:15:52;;;;;;;5.47;2.35;;;24.00;90.40;;;;;;5074050;28;20025;-52
2021/12/15 11:18:26;;;;;;;5.50;1.90;;;24.00;90.60;;;;;;5072901;28;20487;-54
2021/12/15 11:20:57;;;;;;;9.90;2.08;;;24.00;90.60;;;;;;5074112;28;20120;-56
2021/12/15 11:23:26;;;;;;;5.65;1.80;;;23.90;90.50;;;;;;5073759;28;20047;-52
2021/12/15 11:25:57;;;;;;;5.05;1.90;;;23.90;90.40;;;;;;5072031;28;20122;-58
2021/12/15 11:28:30;;;;;;;9.70;2.40;;;23.90;90.60;;;;;;5073697;28;20505;-58
2021/12/15 11:31:12;;;;;;;7.43;2.47;;;23.90;90.60;;;;;;5073767;28;20358;-57
2021/12/15 11:33:45;;;;;;;8.43;2.50;;;23.90;90.70;;;;;;5073812;28;20380;-56
2021/12/15 11:36:14;;;;;;;5.35;2.15;;;23.90;90.50;;;;;;5072695;28;20020;-59
2021/12/15 11:38:54;;;;;;;5.97;2.13;;;23.80;90.70;;;;;;5073597;28;20532;-55
2021/12/15 11:41:32;;;;;;;5.03;1.40;;;23.80;90.80;;;;;;5074021;28;20355;-57
2021/12/15 11:44:06;;;;;;;4.47;1.90;;;23.80;90.90;;;;;;5073225;28;20117;-60
2021/12/15 11:46:38;;;;;;;9.25;2.70;;;23.80;90.90;;;;;;5073629;28;20124;-52
2021/12/15 11:49:18;;;;;;;5.80;2.25;;;23.80;91.00;;;;;;5073533;28;20020;-53
2021/12/15 11:51:51;;;;;;;6.28;1.88;;;23.70;91.00;;;;;;5073749;28;20025;-58
2021/12/15 11:54:20;;;;;;;6.10;2.28;;;23.70;91.00;;;;;;5073263;28;20056;-57
2021/12/15 11:56:55;;;;;;;5.47;1.48;;;23.70;91.00;;;;;;5073540;28;20057;-61
2021/12/15 11:59:24;;;;;;;5.75;2.00;;;23.70;91.00;;;;;;5073244;28;20041;-58
2021/12/15 12:02:02;;;;;;;2.97;1.65;;;23.70;91.10;;;;;;5073047;28;20113;-58
2021/12/15 12:04:46;;;;;;;5.25;1.83;;;23.70;91.00;;;;;;5073435;28;20047;-57
2021/12/15 12:07:21;;;;;;;6.15;2.15;;;23.70;91.10;;;;;;5073389;28;20048;-57
2021/12/15 12:10:10;;;;;;;6.95;2.08;;;23.70;91.10;;;;;;5073559;28;20097;-61
2021/12/15 12:12:50;;;;;;;4.78;2.08;;;23.70;91.10;;;;;;5073281;28;20028;-58
2021/12/15 12:15:22;;;;;;;6.63;1.85;;;23.60;91.20;;;;;;5073294;28;20060;-57
2021/12/15 12:17:52;;;;;;;5.47;2.20;;;23.70;91.20;;;;;;5073068;28;20055;-57
2021/12/15 12:20:24;;;;;;;7.30;2.53;;;23.60;91.30;;;;;;5073149;28;20028;-56
2021/12/15 12:22:53;;;;;;;4.63;1.70;;;23.70;91.30;;;;;;5072753;28;20371;-56
2021/12/15 12:25:31;;;;;;;3.97;1.65;;;23.70;91.30;;;;;;5073142;28;20044;-55
2021/12/15 12:27:59;;;;;;;6.10;1.98;;;23.60;91.20;;;;;;5072782;28;20081;-56
2021/12/15 12:30:41;;;;;;;6.78;1.90;;;23.60;91.30;;;;;;5073304;28;20035;-59
2021/12/15 12:33:10;;;;;;;;;;;23.60;91.20;;;;;;5073506;28;20027;-59
2021/12/15 12:35:47;;;;;;;5.90;1.95;;;23.60;91.20;;;;;;5073133;28;19904;-54
2021/12/15 12:38:24;;;;;;;4.40;1.90;;;23.60;91.50;;;;;;5072796;28;20493;-58
2021/12/15 12:40:59;;;;;;;6.45;2.25;;;23.60;91.30;;;;;;5072905;28;20031;-59
2021/12/15 12:43:39;;;;;;;4.22;1.35;;;23.60;91.30;;;;;;5072919;28;20024;-59
2021/12/15 12:46:20;;;;;;;5.35;2.20;;;23.60;91.40;;;;;;5072873;28;20098;-58
2021/12/15 13:00:28;;;;;;;4.68;1.90;;;23.50;91.40;;;;;;5072873;28;20059;-59
2021/12/15 13:03:02;;;;;;;4.30;1.70;;;23.50;91.50;;;;;;5072909;28;20024;-61
2021/12/15 13:05:44;;;;;;;8.07;2.30;;;23.50;91.40;;;;;;5072578;28;20035;-57
2021/12/15 13:08:18;;;;;;;6.47;2.65;;;23.50;91.40;;;;;;5072474;28;20620;-59
2021/12/15 13:10:48;;;;;;;7.53;2.13;;;23.50;91.40;;;;;;5072710;28;20511;-59
2021/12/15 13:13:19;;;;;;;8.45;2.00;;;23.50;91.40;;;;;;5072527;28;20067;-55
2021/12/15 13:15:59;;;;;;;7.53;2.15;;;23.50;91.40;;;;;;5072779;28;20012;-59
2021/12/15 13:18:28;;;;;;;6.93;2.38;;;23.50;91.50;;;;;;5072790;28;20036;-59
2021/12/15 13:21:06;;;;;;;4.72;1.90;;;23.50;91.60;;;;;;5072528;28;20031;-56
2021/12/15 13:24:00;;;;;;;5.07;1.98;;;23.50;91.50;;;;;;5072668;28;20383;-51
2021/12/15 13:29:52;;;;;;;4.95;2.00;;;23.40;91.50;;;;;;5072688;28;20073;-57
2021/12/15 13:32:26;;;;;;;6.88;2.40;;;23.50;91.50;;;;;;5072824;28;20044;-55
2021/12/15 13:34:53;;;;;;;5.32;2.20;;;23.40;91.60;;;;;;5072600;28;20032;-57
2021/12/15 13:37:50;;;;;;;5.15;1.58;;;23.40;91.60;;;;;;5072222;28;20024;-57
2021/12/15 13:40:35;;;;;;;3.95;1.52;;;23.40;91.60;;;;;;5072599;28;20032;-59
2021/12/15 13:43:03;;;;;;;6.32;2.05;;;23.40;91.60;;;;;;5072535;28;20028;-58
2021/12/15 13:45:33;;;;;;;6.05;2.25;;;23.40;91.50;;;;;;5072523;28;20149;-59
2021/12/15 13:48:01;;;;;;;4.43;1.50;;;23.40;91.60;;;;;;5072244;28;20111;-59
2021/12/15 13:50:30;;;;;;;5.00;1.75;;;23.40;91.60;;;;;;5072715;28;20037;-60
2021/12/15 13:53:04;;;;;;;6.60;1.63;;;23.40;91.60;;;;;;5072097;28;20036;-58
2021/12/15 13:55:44;;;;;;;4.28;1.67;;;23.40;91.60;;;;;;5073952;28;20419;-58
2021/12/15 13:58:21;;;;;;;4.78;1.65;;;23.40;91.60;;;;;;5075470;28;20048;-60
2021/12/15 14:01:03;;;;;;;5.43;1.98;;;23.40;91.70;;;;;;5075953;28;20459;-59
2021/12/15 14:03:48;;;;;;;6.57;2.08;;;23.40;91.70;;;;;;5075851;28;20150;-60
2021/12/15 14:06:24;;;;;;;3.60;1.63;;;23.40;91.60;;;;;;5075605;28;20055;-60
2021/12/15 14:08:55;;;;;;;6.18;1.90;;;23.40;91.70;;;;;;5075993;28;20036;-60
2021/12/15 14:11:24;;;;;;;5.45;2.00;;;23.40;91.70;;;;;;5075951;28;20052;-60
2021/12/15 14:14:01;;;;;;;5.25;2.00;;;23.40;91.70;;;;;;5075414;28;20024;-60
2021/12/15 14:16:33;;;;;;;7.07;2.45;;;23.40;91.70;;;;;;5075893;28;20043;-56
2021/12/15 14:19:03;;;;;;;;;;;23.40;91.80;;;;;;5076005;28;20092;-55
2021/12/15 14:21:32;;;;;;;5.28;1.80;;;23.30;91.70;;;;;;5075779;28;19958;-58
2021/12/15 14:24:00;;;;;;;6.57;2.03;;;23.30;91.70;;;;;;5075322;28;20048;-57
2021/12/15 14:26:32;;;;;;;4.40;1.98;;;23.30;91.70;;;;;;5075522;28;20028;-59
2021/12/15 14:29:04;;;;;;;4.88;2.22;;;23.30;91.70;;;;;;5075260;28;20116;-57
2021/12/15 14:31:37;;;;;;;6.38;2.00;;;23.30;91.70;;;;;;5075404;28;20086;-58
2021/12/15 14:34:14;;;;;;;4.80;1.70;;;23.30;91.70;;;;;;5074355;28;20036;-53
2021/12/15 14:36:49;;;;;;;4.85;1.83;;;23.30;91.70;;;;;;5075987;28;20379;-59
2021/12/15 14:39:23;;;;;;;5.53;1.83;;;23.30;91.70;;;;;;5074640;28;20039;-58